Time;durP1;ratioP1;P1;durP2;ratioP2;P2;SDS_P1;SDS_P2;PMS_P1;PMS_P2;Temp;Humidity;BMP_temperature;BMP_pressure;BME280_temperature;BME280_humidity;BME280_pressure;Samples;Min_cycle;Max_cycle;Signal;HPM_P1;HPM_P2
2021/06/11 00:00:47;;;;;;;10.73;8.73;;;;;;;16.66;68.45;99755.38;5014131;28;20042;-63
2021/06/11 00:03:13;;;;;;;12.73;8.70;;;;;;;16.51;68.60;99753.47;5016067;28;20164;-63
2021/06/11 00:05:39;;;;;;;15.40;8.70;;;;;;;16.42;68.44;99745.06;5015645;28;20053;-62
2021/06/11 00:08:05;;;;;;;15.40;9.13;;;;;;;16.43;67.65;99743.19;4998526;28;20476;-64
2021/06/11 00:10:31;;;;;;;13.70;8.93;;;;;;;16.38;68.15;99744.78;5014254;28;20046;-62
2021/06/11 00:12:56;;;;;;;15.00;9.07;;;;;;;16.25;69.25;99749.91;5015937;28;20384;-62
2021/06/11 00:15:22;;;;;;;13.57;9.02;;;;;;;16.28;68.93;99743.97;5014806;28;20046;-63
2021/06/11 00:17:48;;;;;;;12.73;8.75;;;;;;;16.27;68.67;99750.44;5014793;28;20057;-62
2021/06/11 00:20:13;;;;;;;12.60;9.55;;;;;;;16.31;68.53;99748.84;5014040;28;20022;-64
2021/06/11 00:22:39;;;;;;;16.85;9.35;;;;;;;16.23;68.71;99758.28;5015747;28;20376;-62
2021/06/11 00:25:09;;;;;;;14.95;9.25;;;;;;;16.12;68.75;99756.63;5013850;28;20026;-62
2021/06/11 00:27:35;;;;;;;14.23;8.95;;;;;;;16.12;69.02;99746.63;4997669;28;20065;-61
2021/06/11 00:30:01;;;;;;;13.88;9.40;;;;;;;16.18;69.53;99756.38;5014214;28;20113;-61
2021/06/11 00:32:26;;;;;;;14.10;9.30;;;;;;;16.19;69.64;99749.06;4995017;28;20066;-62
2021/06/11 00:34:51;;;;;;;15.63;8.95;;;;;;;16.08;69.00;99748.25;4994960;28;20022;-61
2021/06/11 00:37:17;;;;;;;14.90;9.05;;;;;;;16.12;69.62;99749.31;4994753;28;20038;-61
2021/06/11 00:39:42;;;;;;;13.63;9.48;;;;;;;16.02;69.57;99749.28;4995119;28;20023;-62
2021/06/11 00:42:08;;;;;;;19.77;9.60;;;;;;;15.88;70.94;99756.28;4977689;28;20039;-62
2021/06/11 00:44:33;;;;;;;11.88;8.77;;;;;;;15.86;71.36;99745.72;4975849;28;20035;-61
2021/06/11 00:46:59;;;;;;;15.93;9.63;;;;;;;15.86;71.05;99748.44;4973774;28;20486;-61
2021/06/11 00:49:24;;;;;;;11.93;9.70;;;;;;;15.79;71.34;99753.28;4974335;28;20474;-63
2021/06/11 00:51:50;;;;;;;16.85;10.02;;;;;;;15.64;72.22;99745.06;4974987;28;20039;-62
2021/06/11 00:54:15;;;;;;;13.45;9.88;;;;;;;15.56;73.39;99749.09;4975267;28;20050;-63
2021/06/11 00:56:41;;;;;;;13.80;9.10;;;;;;;15.59;72.25;99745.84;4974716;28;20046;-62
2021/06/11 00:59:07;;;;;;;12.73;8.90;;;;;;;15.70;71.83;99752.13;4973702;28;20054;-63
2021/06/11 01:01:32;;;;;;;23.63;9.02;;;;;;;15.64;70.98;99751.28;4973613;28;20042;-63
2021/06/11 01:03:58;;;;;;;14.45;9.65;;;;;;;15.62;71.13;99750.72;4975137;28;20473;-61
2021/06/11 01:06:23;;;;;;;12.88;9.38;;;;;;;15.50;72.34;99744.72;4974775;28;20461;-61
2021/06/11 01:08:49;;;;;;;14.13;9.32;;;;;;;15.46;72.31;99751.72;4957621;28;20049;-61
2021/06/11 01:11:15;;;;;;;12.63;9.85;;;;;;;15.34;73.27;99749.22;4974476;28;20039;-61
2021/06/11 01:13:40;;;;;;;13.93;10.02;;;;;;;15.31;74.31;99747.88;4973583;28;20101;-62
2021/06/11 01:16:06;;;;;;;14.85;10.52;;;;;;;15.05;74.36;99751.47;4973260;28;20045;-61
2021/06/11 01:18:31;;;;;;;14.32;10.00;;;;;;;14.98;75.26;99753.59;4973643;28;20030;-61
2021/06/11 01:20:57;;;;;;;15.95;10.25;;;;;;;14.91;75.26;99753.00;4980705;28;20034;-61
2021/06/11 01:23:40;;;;;;;18.45;10.50;;;;;;;14.82;75.87;99745.34;4994035;28;20416;-61
2021/06/11 01:26:20;;;;;;;17.45;10.13;;;;;;;15.02;75.41;99755.50;4992750;28;20045;-63
2021/06/11 01:28:49;;;;;;;16.88;10.07;;;;;;;14.97;74.99;99758.16;4994629;28;20554;-62
2021/06/11 01:31:16;;;;;;;15.05;9.00;;;;;;;14.92;75.17;99749.22;4992590;28;20042;-63
2021/06/11 01:33:41;;;;;;;14.93;9.68;;;;;;;14.80;74.75;99746.69;4993470;28;20031;-63
2021/06/11 01:36:09;;;;;;;16.77;9.43;;;;;;;14.35;76.00;99737.91;4976084;28;20133;-63
2021/06/11 01:38:40;;;;;;;14.15;9.30;;;;;;;14.54;75.79;99742.97;4993289;28;20062;-62
2021/06/11 01:41:07;;;;;;;17.27;9.23;;;;;;;14.53;75.47;99746.72;4991416;28;20124;-62
2021/06/11 01:43:34;;;;;;;13.80;9.77;;;;;;;14.55;75.14;99739.19;4977376;28;20468;-62
2021/06/11 01:46:00;;;;;;;18.10;10.27;;;;;;;14.46;75.80;99736.94;4992318;28;20181;-63
2021/06/11 01:48:25;;;;;;;15.38;9.48;;;;;;;14.35;76.37;99737.91;4993325;28;20026;-63
2021/06/11 01:50:51;;;;;;;16.40;10.40;;;;;;;14.42;77.07;99738.50;4992742;28;20050;-62
2021/06/11 01:53:19;;;;;;;16.65;10.73;;;;;;;14.36;76.42;99744.91;4976932;28;20030;-62
2021/06/11 01:55:44;;;;;;;17.70;12.15;;;;;;;14.52;75.42;99739.66;4992605;28;20038;-64
2021/06/11 01:58:16;;;;;;;15.38;10.68;;;;;;;14.53;75.61;99738.63;4993074;28;20543;-62
2021/06/11 02:00:42;;;;;;;16.58;10.60;;;;;;;14.34;76.04;99733.56;4992302;28;20057;-64
2021/06/11 02:03:07;;;;;;;20.67;10.55;;;;;;;14.15;77.41;99726.91;4993032;28;20037;-62
2021/06/11 02:05:34;;;;;;;21.00;11.98;;;;;;;14.34;76.25;99724.69;4991764;28;20042;-62
2021/06/11 02:08:02;;;;;;;13.25;10.23;;;;;;;14.02;76.92;99728.13;4993095;28;20489;-64
2021/06/11 02:10:28;;;;;;;18.20;10.98;;;;;;;13.86;78.59;99734.41;4992299;28;20031;-61
2021/06/11 02:12:53;;;;;;;13.00;10.85;;;;;;;13.89;77.93;99721.25;4992980;28;20023;-62
2021/06/11 02:15:19;;;;;;;17.30;10.70;;;;;;;14.03;78.58;99722.47;4992287;28;20019;-62
2021/06/11 02:17:47;;;;;;;14.90;11.57;;;;;;;14.14;77.67;99727.97;4976646;28;20380;-63
2021/06/11 02:20:14;;;;;;;15.82;10.77;;;;;;;13.91;79.10;99729.88;4992309;28;20046;-63
2021/06/11 02:22:44;;;;;;;20.65;12.18;;;;;;;14.10;77.77;99724.16;4993901;28;20030;-63
2021/06/11 02:25:10;;;;;;;13.15;11.15;;;;;;;14.15;77.44;99721.50;4992607;28;20041;-63
2021/06/11 02:27:37;;;;;;;14.43;10.38;;;;;;;14.04;77.87;99720.59;5007299;28;20022;-63
2021/06/11 02:30:05;;;;;;;13.93;11.07;;;;;;;14.11;77.91;99723.09;5012541;28;20022;-62
2021/06/11 02:32:34;;;;;;;16.70;10.90;;;;;;;14.13;77.00;99727.16;5011529;28;20030;-62
2021/06/11 02:35:01;;;;;;;15.82;10.93;;;;;;;14.00;77.69;99722.16;5013048;28;20475;-62
2021/06/11 02:37:27;;;;;;;17.40;11.57;;;;;;;13.97;78.14;99730.75;5012548;28;20049;-62
2021/06/11 02:39:53;;;;;;;15.93;11.50;;;;;;;14.12;77.32;99730.09;5012739;28;20113;-62
2021/06/11 02:42:18;;;;;;;18.00;11.70;;;;;;;14.13;77.06;99718.28;5012447;28;20041;-62
2021/06/11 02:44:46;;;;;;;12.27;10.43;;;;;;;14.13;77.62;99726.38;4995039;28;20053;-62
2021/06/11 02:47:46;;;;;;;19.38;10.80;;;;;;;14.05;77.14;99719.50;4995036;28;20038;-62
2021/06/11 02:50:18;;;;;;;15.20;11.70;;;;;;;13.98;77.44;99722.44;5010943;28;20388;-62
2021/06/11 02:52:49;;;;;;;22.23;12.40;;;;;;;13.94;77.04;99718.59;5013362;28;20445;-62
2021/06/11 02:55:15;;;;;;;19.98;12.18;;;;;;;13.99;77.30;99718.66;5016171;28;20106;-62
2021/06/11 02:58:04;;;;;;;17.23;12.20;;;;;;;13.94;77.08;99725.88;5015647;28;20038;-62
2021/06/11 03:00:30;;;;;;;17.15;11.40;;;;;;;13.78;77.71;99724.91;5015781;28;20046;-62
2021/06/11 03:02:57;;;;;;;15.38;11.65;;;;;;;13.73;77.88;99728.34;5015319;28;20030;-62
2021/06/11 03:05:23;;;;;;;19.30;11.48;;;;;;;13.64;79.04;99729.03;5014826;28;20388;-62
2021/06/11 03:07:49;;;;;;;14.60;11.52;;;;;;;13.76;78.68;99725.13;5016634;28;20026;-62
2021/06/11 03:10:15;;;;;;;16.88;11.30;;;;;;;13.79;78.13;99731.91;5015113;28;20018;-62
2021/06/11 03:12:41;;;;;;;21.45;13.15;;;;;;;13.86;78.18;99724.44;5015151;28;20044;-62
2021/06/11 03:15:10;;;;;;;17.08;11.68;;;;;;;13.59;79.47;99727.06;4998596;28;20052;-62
2021/06/11 03:17:44;;;;;;;14.85;11.20;;;;;;;13.77;78.98;99729.44;5016191;28;20022;-62
2021/06/11 03:20:12;;;;;;;14.70;11.65;;;;;;;13.70;78.21;99728.00;5014544;28;20021;-62
2021/06/11 03:22:42;;;;;;;18.58;11.88;;;;;;;13.61;77.82;99734.91;5016440;28;20101;-63
2021/06/11 03:25:10;;;;;;;15.85;10.75;;;;;;;13.52;78.56;99724.56;4997982;28;20113;-62
2021/06/11 03:27:39;;;;;;;16.67;11.88;;;;;;;13.55;78.69;99731.31;5016247;28;20423;-62
2021/06/11 03:30:10;;;;;;;16.65;11.32;;;;;;;13.34;79.50;99736.44;4998470;28;20105;-62
2021/06/11 03:32:38;;;;;;;17.80;12.73;;;;;;;13.79;78.58;99731.91;5014736;28;20484;-61
2021/06/11 03:35:05;;;;;;;21.98;13.63;;;;;;;14.57;77.35;99743.25;5014478;28;20037;-62
2021/06/11 03:37:31;;;;;;;15.25;11.57;;;;;;;14.92;73.09;99736.53;5016155;28;20036;-62
2021/06/11 03:39:58;;;;;;;15.05;10.45;;;;;;;15.17;72.16;99740.47;5016253;28;20030;-62
2021/06/11 03:42:24;;;;;;;16.85;10.57;;;;;;;15.29;70.74;99743.78;5015399;28;20038;-62
2021/06/11 03:44:50;;;;;;;18.08;10.38;;;;;;;15.13;71.59;99745.59;4998252;28;20038;-62
2021/06/11 03:47:20;;;;;;;20.42;10.75;;;;;;;15.30;71.98;99745.41;5014083;28;20484;-62
2021/06/11 03:49:47;;;;;;;19.48;11.88;;;;;;;15.87;70.60;99743.84;4998523;28;20076;-62
2021/06/11 03:52:13;;;;;;;16.60;11.07;;;;;;;15.64;71.68;99742.38;5015073;28;20064;-63
2021/06/11 03:54:42;;;;;;;23.67;11.90;;;;;;;15.68;71.20;99741.59;5014329;28;20026;-62
2021/06/11 03:57:08;;;;;;;12.30;9.45;;;;;;;16.20;68.82;99753.44;5013882;28;20030;-63
2021/06/11 03:59:33;;;;;;;20.10;10.55;;;;;;;17.17;64.13;99756.22;4997810;28;20080;-63
2021/06/11 04:01:59;;;;;;;20.50;10.48;;;;;;;17.55;63.53;99758.56;5013524;28;20034;-61
2021/06/11 04:04:24;;;;;;;13.95;9.35;;;;;;;18.64;59.16;99749.63;4997003;28;20061;-61
2021/06/11 04:06:52;;;;;;;19.67;9.02;;;;;;;18.50;58.80;99755.69;5013801;28;20096;-61
2021/06/11 04:09:29;;;;;;;12.85;8.90;;;;;;;19.63;55.94;99753.88;5015245;28;20021;-61
2021/06/11 04:12:18;;;;;;;15.32;9.02;;;;;;;19.36;55.77;99757.97;4997578;28;20038;-61
2021/06/11 04:14:45;;;;;;;16.80;9.30;;;;;;;19.51;55.82;99755.09;5015310;28;20023;-61
2021/06/11 04:17:17;;;;;;;12.70;8.48;;;;;;;20.10;54.20;99768.56;4997434;28;20046;-62
2021/06/11 04:19:50;;;;;;;15.27;8.68;;;;;;;20.59;52.05;99760.00;5013840;28;20030;-63
2021/06/11 04:22:17;;;;;;;15.05;8.02;;;;;;;20.44;52.25;99758.28;4997397;28;20038;-62
2021/06/11 04:24:45;;;;;;;15.80;8.50;;;;;;;20.85;51.13;99762.31;5013756;28;20435;-62
2021/06/11 04:27:10;;;;;;;11.77;8.13;;;;;;;20.60;51.39;99760.81;5013743;28;20034;-62
2021/06/11 04:29:36;;;;;;;13.82;8.18;;;;;;;20.35;52.37;99765.50;5015320;28;20053;-62
2021/06/11 04:32:01;;;;;;;16.75;8.40;;;;;;;19.91;53.82;99769.34;5013224;28;20500;-62
2021/06/11 04:34:27;;;;;;;17.13;8.57;;;;;;;20.16;53.27;99761.94;5013349;28;20075;-62
2021/06/11 04:36:53;;;;;;;12.88;8.30;;;;;;;19.72;54.55;99769.31;5014431;28;20365;-62
2021/06/11 04:39:19;;;;;;;15.85;8.68;;;;;;;20.10;53.32;99768.56;5014626;28;20026;-62
2021/06/11 04:41:44;;;;;;;14.98;8.52;;;;;;;20.02;53.73;99762.69;5013043;28;20037;-62
2021/06/11 04:44:10;;;;;;;11.13;7.93;;;;;;;20.65;52.32;99768.91;5014439;28;20036;-62
2021/06/11 04:46:35;;;;;;;17.40;9.00;;;;;;;21.86;48.68;99766.22;5014089;28;20034;-62
2021/06/11 04:49:01;;;;;;;20.63;8.15;;;;;;;22.70;46.56;99770.41;5014627;28;20026;-62
2021/06/11 04:51:26;;;;;;;17.70;8.30;;;;;;;23.20;45.32;99767.53;5014408;28;20045;-62
2021/06/11 04:53:52;;;;;;;16.80;8.77;;;;;;;23.58;44.32;99767.88;5013172;28;20378;-62
2021/06/11 04:56:17;;;;;;;17.15;8.55;;;;;;;24.31;42.86;99773.72;5013845;28;20034;-62
2021/06/11 04:58:43;;;;;;;13.88;8.02;;;;;;;24.11;43.31;99777.06;5013168;28;20376;-63
2021/06/11 05:01:09;;;;;;;14.10;8.20;;;;;;;23.85;43.53;99787.97;5013948;28;20103;-62
2021/06/11 05:03:34;;;;;;;11.98;7.47;;;;;;;24.44;43.06;99776.63;5014479;28;20026;-62
2021/06/11 05:06:01;;;;;;;14.35;7.90;;;;;;;24.66;42.08;99781.97;5012693;28;20030;-63
2021/06/11 05:08:27;;;;;;;11.40;7.60;;;;;;;25.35;40.38;99788.50;5014637;28;20033;-62
2021/06/11 05:10:53;;;;;;;14.80;7.60;;;;;;;24.58;41.93;99781.97;5013908;28;20030;-63
2021/06/11 05:13:18;;;;;;;16.70;7.40;;;;;;;24.84;41.44;99779.22;5014332;28;20475;-63
2021/06/11 05:15:43;;;;;;;11.35;7.32;;;;;;;25.39;40.75;99781.22;5013620;28;20385;-63
2021/06/11 05:18:09;;;;;;;15.63;7.38;;;;;;;25.85;39.81;99778.75;5014310;28;20072;-63
2021/06/11 05:20:35;;;;;;;12.65;6.88;;;;;;;25.66;40.20;99779.16;5013826;28;20091;-63
2021/06/11 05:23:00;;;;;;;19.52;7.30;;;;;;;26.02;39.57;99785.00;5014035;28;20018;-62
2021/06/11 05:25:26;;;;;;;13.75;6.88;;;;;;;26.43;38.97;99772.44;5012248;28;20404;-62
2021/06/11 05:27:52;;;;;;;14.80;7.07;;;;;;;26.73;38.60;99786.09;5014125;28;20492;-62
2021/06/11 05:30:18;;;;;;;12.23;7.03;;;;;;;26.93;38.31;99786.41;5013820;28;20028;-62
2021/06/11 05:32:45;;;;;;;13.15;6.90;;;;;;;27.13;38.52;99782.81;5014055;28;20372;-63
2021/06/11 05:35:10;;;;;;;16.35;7.35;;;;;;;27.03;39.07;99795.06;5012229;28;20030;-63
2021/06/11 05:37:35;;;;;;;14.63;6.90;;;;;;;27.27;37.78;99788.03;5013919;28;20033;-63
2021/06/11 05:40:01;;;;;;;13.77;7.65;;;;;;;28.14;36.35;99787.75;5012155;28;20030;-63
2021/06/11 05:42:26;;;;;;;12.07;7.40;;;;;;;26.89;38.71;99791.81;5012432;28;20110;-62
2021/06/11 05:44:52;;;;;;;11.77;7.43;;;;;;;26.69;39.61;99790.69;5013796;28;20037;-62
2021/06/11 05:47:17;;;;;;;14.57;7.80;;;;;;;27.12;38.60;99783.97;5011941;28;20045;-62
2021/06/11 05:49:43;;;;;;;10.98;7.40;;;;;;;26.11;40.34;99781.38;4996227;28;20030;-62
2021/06/11 05:52:08;;;;;;;12.35;7.03;;;;;;;28.00;37.41;99790.06;5013178;28;20499;-62
2021/06/11 05:54:33;;;;;;;11.45;6.70;;;;;;;28.28;36.87;99792.06;5013407;28;20400;-61
2021/06/11 05:56:59;;;;;;;12.43;6.68;;;;;;;28.91;35.27;99789.63;5013085;28;20118;-62
2021/06/11 05:59:24;;;;;;;14.15;6.38;;;;;;;28.75;35.75;99786.78;5013171;28;20042;-62
2021/06/11 06:01:50;;;;;;;9.48;6.60;;;;;;;28.58;35.95;99790.66;5012962;28;20030;-62
2021/06/11 06:04:15;;;;;;;11.73;6.55;;;;;;;29.59;34.31;99782.31;5013383;28;20037;-62
2021/06/11 06:06:41;;;;;;;12.02;6.82;;;;;;;29.22;34.14;99788.88;5012941;28;20458;-62
2021/06/11 06:09:06;;;;;;;10.30;6.28;;;;;;;30.29;33.13;99793.50;5013359;28;20464;-62
2021/06/11 06:11:31;;;;;;;9.65;6.50;;;;;;;29.54;34.23;99782.59;5011781;28;20075;-62
2021/06/11 06:13:57;;;;;;;12.40;6.50;;;;;;;30.02;33.32;99783.38;5013486;28;20026;-62
2021/06/11 06:16:22;;;;;;;13.32;7.13;;;;;;;31.24;30.84;99791.44;5013139;28;20033;-64
2021/06/11 06:18:48;;;;;;;14.10;6.88;;;;;;;30.73;31.94;99789.66;5013370;28;20045;-62
2021/06/11 06:21:13;;;;;;;14.05;6.72;;;;;;;30.43;32.72;99781.13;5011818;28;20084;-62
2021/06/11 06:23:39;;;;;;;10.90;6.38;;;;;;;30.40;32.92;99781.84;5013091;28;20479;-62
2021/06/11 06:26:04;;;;;;;17.08;9.13;;;;;;;30.53;30.44;99783.34;5013130;28;20053;-62
2021/06/11 06:28:30;;;;;;;14.27;6.70;;;;;;;30.32;32.71;99780.91;5012832;28;20030;-62
2021/06/11 06:30:55;;;;;;;12.00;7.80;;;;;;;29.60;33.35;99778.41;5011151;28;20104;-62
2021/06/11 06:33:21;;;;;;;12.90;8.32;;;;;;;31.26;29.45;99783.56;5012161;28;20075;-62
2021/06/11 06:35:46;;;;;;;14.25;9.73;;;;;;;31.83;27.65;99779.00;5012907;28;20138;-62
2021/06/11 06:38:13;;;;;;;13.38;10.55;;;;;;;30.18;29.87;99775.84;5012006;28;20022;-62
2021/06/11 06:40:40;;;;;;;21.65;10.98;;;;;;;29.30;31.74;99767.78;5011717;28;20400;-62
2021/06/11 06:43:05;;;;;;;26.90;10.48;;;;;;;29.63;31.34;99772.16;5013046;28;20022;-62
2021/06/11 06:45:30;;;;;;;24.63;11.50;;;;;;;28.06;34.43;99761.13;5011352;28;20044;-62
2021/06/11 06:47:56;;;;;;;24.85;11.38;;;;;;;29.58;32.25;99764.13;5013137;28;20030;-62
2021/06/11 06:50:21;;;;;;;18.73;10.80;;;;;;;30.16;30.67;99769.88;5012693;28;20029;-62
2021/06/11 06:52:47;;;;;;;20.40;10.82;;;;;;;30.47;30.25;99768.97;5013020;28;20491;-62
2021/06/11 06:55:12;;;;;;;19.95;10.95;;;;;;;29.89;31.38;99755.84;5012809;28;20037;-62
2021/06/11 06:57:38;;;;;;;19.98;11.63;;;;;;;27.41;34.99;99746.41;5013124;28;20040;-62
2021/06/11 07:00:05;;;;;;;17.35;11.07;;;;;;;30.73;29.92;99751.72;5012275;28;20049;-62
2021/06/11 07:02:30;;;;;;;16.45;10.63;;;;;;;31.40;28.97;99750.59;5012882;28;20026;-62
2021/06/11 07:04:56;;;;;;;18.42;10.13;;;;;;;32.85;26.41;99752.22;5012702;28;20038;-62
2021/06/11 07:07:21;;;;;;;18.67;11.05;;;;;;;31.05;29.12;99759.88;5012381;28;20041;-62
2021/06/11 07:09:47;;;;;;;22.85;10.27;;;;;;;32.23;27.27;99758.22;5013015;28;20014;-63
2021/06/11 07:12:12;;;;;;;20.38;10.85;;;;;;;30.41;29.92;99767.69;5012524;28;20038;-62
2021/06/11 07:14:38;;;;;;;24.20;11.45;;;;;;;31.27;29.09;99763.81;5012945;28;20057;-62
2021/06/11 07:17:04;;;;;;;18.35;9.05;;;;;;;32.72;27.15;99767.53;5012594;28;20088;-62
2021/06/11 07:19:30;;;;;;;19.63;10.15;;;;;;;32.23;27.95;99764.56;5012819;28;20018;-62
2021/06/11 07:21:55;;;;;;;23.00;10.93;;;;;;;30.83;29.69;99766.16;5012279;28;20104;-62
2021/06/11 07:24:21;;;;;;;20.85;10.65;;;;;;;30.60;30.35;99764.09;5012665;28;20038;-62
2021/06/11 07:26:46;;;;;;;20.02;10.65;;;;;;;29.90;32.10;99756.66;5012505;28;20041;-63
2021/06/11 07:29:12;;;;;;;17.77;10.07;;;;;;;31.26;29.70;99766.97;5013071;28;20018;-63
2021/06/11 07:31:37;;;;;;;21.30;10.90;;;;;;;30.67;30.18;99766.22;5012425;28;20404;-62
2021/06/11 07:34:03;;;;;;;15.32;10.73;;;;;;;30.41;30.37;99761.34;5012624;28;20087;-63
2021/06/11 07:36:28;;;;;;;14.93;10.40;;;;;;;32.01;28.52;99769.00;5012258;28;20057;-63
2021/06/11 07:38:54;;;;;;;17.88;10.23;;;;;;;32.31;28.04;99768.22;5011903;28;20068;-62
2021/06/11 07:41:21;;;;;;;18.58;10.80;;;;;;;32.07;28.24;99774.22;5015714;28;20472;-62
2021/06/11 07:43:47;;;;;;;20.17;10.68;;;;;;;33.24;26.44;99766.53;5016095;28;20030;-62
2021/06/11 07:46:12;;;;;;;19.15;9.32;;;;;;;32.56;27.23;99754.69;5015747;28;20064;-63
2021/06/11 07:48:37;;;;;;;12.73;9.38;;;;;;;31.91;28.50;99764.06;5015140;28;20484;-62
2021/06/11 07:51:03;;;;;;;21.48;10.68;;;;;;;30.42;31.05;99762.94;5015487;28;20041;-62
2021/06/11 07:53:28;;;;;;;17.60;10.73;;;;;;;29.68;32.12;99752.59;5015744;28;20018;-62
2021/06/11 07:55:55;;;;;;;18.33;10.40;;;;;;;31.68;29.36;99772.44;5015152;28;20044;-62
2021/06/11 07:58:20;;;;;;;19.33;9.57;;;;;;;32.00;28.52;99767.41;5015560;28;20036;-62
2021/06/11 08:00:46;;;;;;;17.10;10.32;;;;;;;32.73;27.30;99758.84;5013939;28;20042;-63
2021/06/11 08:03:11;;;;;;;16.20;10.27;;;;;;;34.00;25.33;99765.16;5015581;28;20352;-60
2021/06/11 08:05:39;;;;;;;14.63;9.43;;;;;;;33.32;27.21;99766.59;5014941;28;20053;-61
2021/06/11 08:08:05;;;;;;;14.38;9.63;;;;;;;33.00;27.77;99761.50;5015608;28;20030;-61
2021/06/11 08:10:30;;;;;;;17.45;9.77;;;;;;;32.99;27.08;99765.47;5013504;28;20025;-61
2021/06/11 08:12:56;;;;;;;15.77;9.80;;;;;;;34.05;25.83;99764.78;5015525;28;20018;-61
2021/06/11 08:15:21;;;;;;;18.50;11.00;;;;;;;33.59;25.20;99770.03;5015112;28;20034;-61
2021/06/11 08:17:46;;;;;;;14.20;9.70;;;;;;;33.12;27.25;99772.34;5014080;28;20033;-61
2021/06/11 08:20:12;;;;;;;14.52;9.82;;;;;;;31.54;29.76;99773.00;5014765;28;20041;-62
2021/06/11 08:22:38;;;;;;;18.83;9.35;;;;;;;32.47;28.49;99775.53;5015147;28;20112;-61
2021/06/11 08:25:07;;;;;;;15.30;8.70;;;;;;;32.86;28.19;99773.25;5014531;28;20128;-61
2021/06/11 08:27:33;;;;;;;13.13;8.80;;;;;;;34.52;25.60;99771.41;5015123;28;20030;-61
2021/06/11 08:29:58;;;;;;;19.08;10.05;;;;;;;32.84;27.65;99779.19;5014572;28;20014;-62
2021/06/11 08:32:24;;;;;;;15.27;9.40;;;;;;;32.69;28.85;99779.41;5014535;28;20061;-61
2021/06/11 08:34:49;;;;;;;20.63;10.18;;;;;;;31.58;29.17;99776.63;5014729;28;20034;-61
2021/06/11 08:37:15;;;;;;;11.77;9.32;;;;;;;32.78;28.21;99772.38;5014530;28;20073;-61
2021/06/11 08:39:40;;;;;;;23.08;11.63;;;;;;;32.68;27.29;99769.50;5014980;28;20234;-61
2021/06/11 08:42:07;;;;;;;17.55;9.75;;;;;;;32.47;28.06;99768.00;5014328;28;20092;-62
2021/06/11 08:44:32;;;;;;;16.92;10.35;;;;;;;32.71;27.59;99768.75;5014768;28;20099;-61
2021/06/11 08:46:57;;;;;;;17.60;10.30;;;;;;;32.71;27.74;99760.41;5013050;28;20088;-61
2021/06/11 08:49:24;;;;;;;18.77;10.00;;;;;;;32.11;28.69;99766.75;5014479;28;20099;-61
2021/06/11 08:51:55;;;;;;;20.33;10.68;;;;;;;31.92;28.73;99759.31;5012421;28;20099;-61
2021/06/11 08:54:20;;;;;;;19.70;12.00;;;;;;;32.23;28.50;99758.22;5014751;28;20026;-62
2021/06/11 08:56:45;;;;;;;15.15;10.00;;;;;;;32.27;28.06;99759.03;5014218;28;20318;-62
2021/06/11 08:59:12;;;;;;;17.27;12.07;;;;;;;32.55;27.12;99755.88;5014424;28;20510;-61
2021/06/11 09:01:38;;;;;;;18.58;11.63;;;;;;;32.01;28.40;99757.91;5012723;28;20116;-62
2021/06/11 09:04:03;;;;;;;17.30;11.00;;;;;;;32.92;27.08;99745.94;5014311;28;20025;-61
2021/06/11 09:06:29;;;;;;;18.10;11.57;;;;;;;32.83;26.92;99758.16;5013894;28;20396;-62
2021/06/11 09:08:58;;;;;;;21.52;12.40;;;;;;;32.86;26.27;99746.31;5014316;28;20374;-61
2021/06/11 09:11:25;;;;;;;27.67;12.90;;;;;;;33.19;25.89;99758.53;5012705;28;20049;-63
2021/06/11 09:14:02;;;;;;;22.05;13.60;;;;;;;32.58;26.83;99757.09;5014346;28;20033;-63
2021/06/11 09:16:27;;;;;;;23.75;11.93;;;;;;;33.25;26.15;99747.88;5013761;28;20049;-63
2021/06/11 09:18:57;;;;;;;25.25;12.38;;;;;;;32.18;27.55;99747.44;5014253;28;20052;-63
2021/06/11 09:21:36;;;;;;;21.13;12.13;;;;;;;32.45;27.62;99753.72;5013549;28;20353;-63
2021/06/11 09:24:21;;;;;;;;;;;;;;;31.39;28.61;99749.00;5014433;28;20037;-62
2021/06/11 09:27:10;;;;;;;26.92;12.48;;;;;;;32.51;27.28;99743.13;5013756;28;19917;-63
2021/06/11 09:29:43;;;;;;;29.40;10.68;;;;;;;32.11;29.26;99747.34;5012761;28;20373;-62
2021/06/11 09:32:14;;;;;;;20.65;11.23;;;;;;;32.04;27.69;99745.28;5013543;28;20120;-62
2021/06/11 09:34:40;;;;;;;22.40;12.82;;;;;;;32.83;25.39;99749.06;5014041;28;20026;-62
2021/06/11 09:37:16;;;;;;;22.88;11.85;;;;;;;32.90;25.43;99739.97;5011967;28;20069;-62
2021/06/11 09:39:54;;;;;;;32.50;14.02;;;;;;;30.60;28.10;99741.97;5013846;28;20416;-62
2021/06/11 09:42:21;;;;;;;23.08;11.82;;;;;;;31.65;27.06;99745.44;5013005;28;20045;-62
2021/06/11 09:44:51;;;;;;;23.95;12.27;;;;;;;31.26;27.55;99751.13;5013243;28;20084;-62
2021/06/11 09:47:43;;;;;;;21.83;12.52;;;;;;;32.39;26.56;99739.38;5013090;28;20045;-62
2021/06/11 09:50:16;;;;;;;29.05;10.50;;;;;;;32.80;26.19;99750.63;5011951;28;20026;-61
2021/06/11 09:52:51;;;;;;;27.45;9.30;;;;;;;32.96;26.60;99752.34;5013673;28;20026;-62
2021/06/11 09:55:34;;;;;;;19.50;8.05;;;;;;;31.65;27.71;99761.28;5013130;28;20030;-62
2021/06/11 09:58:13;;;;;;;13.88;6.40;;;;;;;32.07;26.07;99750.06;5013459;28;20026;-62
2021/06/11 10:00:49;;;;;;;15.98;7.47;;;;;;;30.62;27.96;99750.72;5012997;28;20050;-61
2021/06/11 10:03:17;;;;;;;16.85;7.55;;;;;;;29.61;28.38;99747.66;5012434;28;20057;-62
2021/06/11 10:05:43;;;;;;;17.10;7.03;;;;;;;30.35;29.17;99751.72;5012847;28;20099;-61
2021/06/11 10:08:09;;;;;;;20.83;8.63;;;;;;;30.24;28.65;99755.06;5013112;28;20121;-61
2021/06/11 10:10:34;;;;;;;12.63;6.63;;;;;;;30.38;29.18;99756.53;5012744;28;20448;-61
2021/06/11 10:13:00;;;;;;;18.08;7.68;;;;;;;31.24;28.05;99752.69;5013050;28;20033;-61
2021/06/11 10:15:25;;;;;;;19.10;7.15;;;;;;;31.56;27.29;99753.25;5011269;28;20037;-61
2021/06/11 10:17:50;;;;;;;22.23;8.60;;;;;;;31.64;27.05;99749.41;5013254;28;20072;-62
2021/06/11 10:20:16;;;;;;;23.77;8.98;;;;;;;31.98;26.73;99758.66;5011161;28;20488;-61
2021/06/11 10:22:41;;;;;;;19.88;9.40;;;;;;;30.71;27.78;99747.72;5012833;28;20092;-61
2021/06/11 10:25:08;;;;;;;18.25;8.88;;;;;;;28.93;31.55;99745.94;5012547;28;20029;-62
2021/06/11 10:27:35;;;;;;;21.50;7.70;;;;;;;29.37;32.20;99743.13;5012905;28;20030;-61
2021/06/11 10:30:00;;;;;;;16.50;8.35;;;;;;;30.85;28.67;99741.69;4995478;28;20465;-62
2021/06/11 10:32:26;;;;;;;15.20;7.45;;;;;;;31.41;28.66;99740.34;5011355;28;20038;-61
2021/06/11 10:34:52;;;;;;;17.50;8.13;;;;;;;31.94;27.63;99751.47;5011653;28;20030;-61
2021/06/11 10:37:40;;;;;;;23.77;8.55;;;;;;;30.88;29.24;99746.50;5012586;28;20109;-61
2021/06/11 10:40:23;;;;;;;18.17;7.93;;;;;;;31.79;28.18;99750.44;5011172;28;20026;-61
2021/06/11 10:42:49;;;;;;;19.83;7.88;;;;;;;31.40;28.00;99742.28;5012847;28;20072;-62
2021/06/11 10:45:39;;;;;;;24.15;7.40;;;;;;;30.88;28.95;99735.44;5012370;28;20034;-61
2021/06/11 10:48:05;;;;;;;25.30;7.25;;;;;;;31.04;29.80;99747.19;5011642;28;20049;-61
2021/06/11 10:50:32;;;;;;;17.25;7.55;;;;;;;30.49;29.39;99750.06;5012464;28;20555;-62
2021/06/11 10:53:11;;;;;;;23.08;6.82;;;;;;;31.13;29.59;99742.22;5012824;28;20049;-61
2021/06/11 10:56:00;;;;;;;19.27;7.13;;;;;;;31.68;28.94;99743.94;5011294;28;20038;-61
2021/06/11 10:58:25;;;;;;;26.15;7.07;;;;;;;31.04;30.52;99744.41;5012410;28;20472;-61
2021/06/11 11:00:50;;;;;;;22.63;7.70;;;;;;;31.06;29.40;99739.31;5012095;28;20452;-62
2021/06/11 11:03:27;;;;;;;25.60;8.65;;;;;;;30.25;30.16;99734.56;5012834;28;20110;-62
2021/06/11 11:05:52;;;;;;;18.77;8.18;;;;;;;28.66;33.40;99730.22;5012268;28;20065;-62
2021/06/11 11:08:18;;;;;;;19.52;7.57;;;;;;;28.90;32.87;99723.75;5012681;28;20037;-62
2021/06/11 11:10:47;;;;;;;27.40;8.38;;;;;;;28.54;33.99;99718.06;5012120;28;20030;-62
2021/06/11 11:13:15;;;;;;;17.73;7.95;;;;;;;29.91;31.22;99721.56;5013289;28;20137;-62
2021/06/11 11:15:44;;;;;;;17.33;8.27;;;;;;;30.27;30.30;99712.06;5014498;28;20053;-62
2021/06/11 11:18:13;;;;;;;20.15;7.53;;;;;;;30.67;30.19;99725.53;5016299;28;20522;-62
2021/06/11 11:20:40;;;;;;;21.25;7.75;;;;;;;28.55;32.51;99719.66;5015883;28;20065;-62
2021/06/11 11:23:10;;;;;;;15.23;6.85;;;;;;;28.74;33.18;99704.44;5016195;28;20037;-62